sensor_id;sensor_type;location;lat;lon;timestamp;P1;durP1;ratioP1;P2;durP2;ratioP2
77738;SDS011;66904;59.926;30.404;2024-03-02T00:00:51;1.98;;;0.70;;
77738;SDS011;66904;59.926;30.404;2024-03-02T00:06:02;1.60;;;0.70;;
77738;SDS011;66904;59.926;30.404;2024-03-02T00:11:13;2.55;;;1.30;;
77738;SDS011;66904;59.926;30.404;2024-03-02T00:16:29;2.63;;;1.17;;
77738;SDS011;66904;59.926;30.404;2024-03-02T00:21:41;4.72;;;1.75;;
77738;SDS011;66904;59.926;30.404;2024-03-02T00:26:52;3.63;;;1.70;;
77738;SDS011;66904;59.926;30.404;2024-03-02T00:32:03;3.75;;;1.35;;
77738;SDS011;66904;59.926;30.404;2024-03-02T00:37:14;3.45;;;1.40;;
77738;SDS011;66904;59.926;30.404;2024-03-02T00:42:24;2.20;;;1.35;;
77738;SDS011;66904;59.926;30.404;2024-03-02T00:47:38;4.30;;;1.30;;
77738;SDS011;66904;59.926;30.404;2024-03-02T00:52:49;2.70;;;1.48;;
77738;SDS011;66904;59.926;30.404;2024-03-02T00:58:00;2.55;;;0.63;;
77738;SDS011;66904;59.926;30.404;2024-03-02T01:03:11;2.63;;;1.30;;
77738;SDS011;66904;59.926;30.404;2024-03-02T01:08:21;1.77;;;1.10;;
77738;SDS011;66904;59.926;30.404;2024-03-02T01:13:32;3.05;;;1.20;;
77738;SDS011;66904;59.926;30.404;2024-03-02T01:18:43;3.10;;;1.38;;
77738;SDS011;66904;59.926;30.404;2024-03-02T01:23:54;1.63;;;0.95;;
77738;SDS011;66904;59.926;30.404;2024-03-02T01:29:04;3.05;;;1.40;;
77738;SDS011;66904;59.926;30.404;2024-03-02T01:34:15;3.90;;;1.38;;
77738;SDS011;66904;59.926;30.404;2024-03-02T01:39:26;2.83;;;1.13;;
77738;SDS011;66904;59.926;30.404;2024-03-02T01:44:36;1.95;;;0.90;;
77738;SDS011;66904;59.926;30.404;2024-03-02T01:49:47;2.83;;;0.85;;
77738;SDS011;66904;59.926;30.404;2024-03-02T01:54:58;2.53;;;1.08;;
77738;SDS011;66904;59.926;30.404;2024-03-02T02:00:08;2.13;;;1.10;;
77738;SDS011;66904;59.926;30.404;2024-03-02T02:05:20;1.98;;;1.02;;
77738;SDS011;66904;59.926;30.404;2024-03-02T02:10:31;2.25;;;1.13;;
77738;SDS011;66904;59.926;30.404;2024-03-02T02:15:41;2.05;;;1.17;;
77738;SDS011;66904;59.926;30.404;2024-03-02T02:20:52;2.28;;;0.98;;
77738;SDS011;66904;59.926;30.404;2024-03-02T02:26:03;2.30;;;1.17;;
77738;SDS011;66904;59.926;30.404;2024-03-02T02:31:14;2.30;;;1.02;;
77738;SDS011;66904;59.926;30.404;2024-03-02T02:36:24;2.40;;;1.15;;
77738;SDS011;66904;59.926;30.404;2024-03-02T02:41:35;3.55;;;1.52;;
77738;SDS011;66904;59.926;30.404;2024-03-02T02:46:46;3.05;;;1.75;;
77738;SDS011;66904;59.926;30.404;2024-03-02T02:51:56;5.10;;;1.58;;
77738;SDS011;66904;59.926;30.404;2024-03-02T02:57:07;1.92;;;1.08;;
77738;SDS011;66904;59.926;30.404;2024-03-02T03:02:18;5.60;;;1.30;;
77738;SDS011;66904;59.926;30.404;2024-03-02T03:07:28;3.03;;;1.58;;
77738;SDS011;66904;59.926;30.404;2024-03-02T03:12:39;2.50;;;1.40;;
77738;SDS011;66904;59.926;30.404;2024-03-02T03:17:51;2.70;;;1.42;;
77738;SDS011;66904;59.926;30.404;2024-03-02T03:23:02;2.80;;;1.55;;
77738;SDS011;66904;59.926;30.404;2024-03-02T03:28:14;3.38;;;1.30;;
77738;SDS011;66904;59.926;30.404;2024-03-02T03:33:25;2.10;;;1.05;;
77738;SDS011;66904;59.926;30.404;2024-03-02T03:38:35;3.03;;;1.50;;
77738;SDS011;66904;59.926;30.404;2024-03-02T03:43:46;2.53;;;1.58;;
77738;SDS011;66904;59.926;30.404;2024-03-02T03:48:57;3.47;;;1.27;;
77738;SDS011;66904;59.926;30.404;2024-03-02T03:54:07;2.20;;;1.40;;
77738;SDS011;66904;59.926;30.404;2024-03-02T03:59:18;3.08;;;1.30;;
77738;SDS011;66904;59.926;30.404;2024-03-02T04:04:29;4.15;;;1.27;;
77738;SDS011;66904;59.926;30.404;2024-03-02T04:09:40;2.97;;;1.20;;
77738;SDS011;66904;59.926;30.404;2024-03-02T04:14:50;3.17;;;1.48;;
77738;SDS011;66904;59.926;30.404;2024-03-02T04:20:01;4.85;;;1.60;;
77738;SDS011;66904;59.926;30.404;2024-03-02T04:25:14;3.65;;;1.25;;
77738;SDS011;66904;59.926;30.404;2024-03-02T04:30:25;2.13;;;1.20;;
77738;SDS011;66904;59.926;30.404;2024-03-02T04:35:37;2.47;;;1.08;;
77738;SDS011;66904;59.926;30.404;2024-03-02T04:40:47;2.20;;;1.20;;
77738;SDS011;66904;59.926;30.404;2024-03-02T04:45:58;2.03;;;0.65;;
77738;SDS011;66904;59.926;30.404;2024-03-02T04:51:09;1.42;;;0.80;;
77738;SDS011;66904;59.926;30.404;2024-03-02T04:56:21;1.60;;;0.80;;
77738;SDS011;66904;59.926;30.404;2024-03-02T05:01:54;1.75;;;0.70;;
77738;SDS011;66904;59.926;30.404;2024-03-02T05:07:05;3.03;;;0.95;;
77738;SDS011;66904;59.926;30.404;2024-03-02T05:12:16;2.00;;;0.85;;
77738;SDS011;66904;59.926;30.404;2024-03-02T05:17:45;1.60;;;0.70;;
77738;SDS011;66904;59.926;30.404;2024-03-02T05:22:56;3.30;;;0.98;;
77738;SDS011;66904;59.926;30.404;2024-03-02T05:28:06;2.10;;;0.88;;
77738;SDS011;66904;59.926;30.404;2024-03-02T05:33:17;3.13;;;1.02;;
77738;SDS011;66904;59.926;30.404;2024-03-02T05:38:28;1.27;;;0.55;;
77738;SDS011;66904;59.926;30.404;2024-03-02T05:43:39;1.10;;;0.68;;
77738;SDS011;66904;59.926;30.404;2024-03-02T05:48:49;1.30;;;0.75;;
77738;SDS011;66904;59.926;30.404;2024-03-02T05:54:00;2.05;;;0.80;;
77738;SDS011;66904;59.926;30.404;2024-03-02T05:59:11;1.63;;;0.80;;
77738;SDS011;66904;59.926;30.404;2024-03-02T06:04:26;4.03;;;0.60;;
77738;SDS011;66904;59.926;30.404;2024-03-02T06:09:37;1.00;;;0.50;;
77738;SDS011;66904;59.926;30.404;2024-03-02T06:14:48;1.33;;;0.45;;
77738;SDS011;66904;59.926;30.404;2024-03-02T06:19:58;1.95;;;0.50;;
77738;SDS011;66904;59.926;30.404;2024-03-02T06:25:09;1.42;;;0.65;;
77738;SDS011;66904;59.926;30.404;2024-03-02T06:30:20;1.58;;;0.68;;
77738;SDS011;66904;59.926;30.404;2024-03-02T06:35:30;1.20;;;0.73;;
77738;SDS011;66904;59.926;30.404;2024-03-02T06:40:41;1.13;;;0.57;;
77738;SDS011;66904;59.926;30.404;2024-03-02T06:45:52;1.83;;;0.90;;
77738;SDS011;66904;59.926;30.404;2024-03-02T06:51:03;1.52;;;0.75;;
77738;SDS011;66904;59.926;30.404;2024-03-02T06:56:14;1.25;;;0.70;;
77738;SDS011;66904;59.926;30.404;2024-03-02T07:01:25;1.85;;;0.70;;
77738;SDS011;66904;59.926;30.404;2024-03-02T07:06:36;1.60;;;0.80;;
77738;SDS011;66904;59.926;30.404;2024-03-02T07:11:47;1.13;;;0.40;;
77738;SDS011;66904;59.926;30.404;2024-03-02T07:16:57;1.25;;;0.60;;
77738;SDS011;66904;59.926;30.404;2024-03-02T07:22:08;1.33;;;0.50;;
77738;SDS011;66904;59.926;30.404;2024-03-02T07:27:19;1.65;;;0.70;;
77738;SDS011;66904;59.926;30.404;2024-03-02T07:32:30;1.48;;;0.65;;
77738;SDS011;66904;59.926;30.404;2024-03-02T07:37:41;1.25;;;0.63;;
77738;SDS011;66904;59.926;30.404;2024-03-02T07:42:53;1.48;;;0.57;;
77738;SDS011;66904;59.926;30.404;2024-03-02T07:48:03;1.55;;;0.70;;
77738;SDS011;66904;59.926;30.404;2024-03-02T07:53:14;1.55;;;0.85;;
77738;SDS011;66904;59.926;30.404;2024-03-02T07:58:25;1.58;;;0.82;;
77738;SDS011;66904;59.926;30.404;2024-03-02T08:03:36;1.25;;;0.68;;
77738;SDS011;66904;59.926;30.404;2024-03-02T08:08:47;2.75;;;0.88;;
77738;SDS011;66904;59.926;30.404;2024-03-02T08:13:58;2.38;;;1.00;;
77738;SDS011;66904;59.926;30.404;2024-03-02T08:19:09;3.38;;;0.77;;
77738;SDS011;66904;59.926;30.404;2024-03-02T08:24:20;1.67;;;0.60;;
77738;SDS011;66904;59.926;30.404;2024-03-02T08:29:31;2.35;;;0.65;;
77738;SDS011;66904;59.926;30.404;2024-03-02T08:34:41;1.08;;;0.60;;
77738;SDS011;66904;59.926;30.404;2024-03-02T08:39:52;1.77;;;0.70;;
77738;SDS011;66904;59.926;30.404;2024-03-02T08:45:03;2.13;;;0.98;;
77738;SDS011;66904;59.926;30.404;2024-03-02T08:50:14;3.17;;;0.93;;
77738;SDS011;66904;59.926;30.404;2024-03-02T08:55:25;3.97;;;1.00;;
77738;SDS011;66904;59.926;30.404;2024-03-02T09:00:36;4.93;;;0.70;;
77738;SDS011;66904;59.926;30.404;2024-03-02T09:05:47;3.20;;;0.65;;
77738;SDS011;66904;59.926;30.404;2024-03-02T09:10:58;2.17;;;1.05;;
77738;SDS011;66904;59.926;30.404;2024-03-02T09:16:09;2.17;;;0.68;;
77738;SDS011;66904;59.926;30.404;2024-03-02T09:21:21;1.17;;;0.60;;
77738;SDS011;66904;59.926;30.404;2024-03-02T09:26:32;1.40;;;0.70;;
77738;SDS011;66904;59.926;30.404;2024-03-02T09:31:43;1.55;;;0.80;;
77738;SDS011;66904;59.926;30.404;2024-03-02T09:36:54;1.83;;;0.73;;
77738;SDS011;66904;59.926;30.404;2024-03-02T09:42:05;1.65;;;0.60;;
77738;SDS011;66904;59.926;30.404;2024-03-02T09:47:16;3.58;;;1.05;;
77738;SDS011;66904;59.926;30.404;2024-03-02T09:52:27;1.83;;;1.00;;
77738;SDS011;66904;59.926;30.404;2024-03-02T09:57:38;2.17;;;1.13;;
77738;SDS011;66904;59.926;30.404;2024-03-02T10:02:48;1.77;;;0.68;;
77738;SDS011;66904;59.926;30.404;2024-03-02T10:08:00;1.20;;;0.80;;
77738;SDS011;66904;59.926;30.404;2024-03-02T10:13:12;2.08;;;0.80;;
77738;SDS011;66904;59.926;30.404;2024-03-02T10:18:26;1.98;;;0.82;;
77738;SDS011;66904;59.926;30.404;2024-03-02T10:23:39;2.13;;;1.10;;
77738;SDS011;66904;59.926;30.404;2024-03-02T10:28:50;2.88;;;1.10;;
77738;SDS011;66904;59.926;30.404;2024-03-02T10:34:09;2.13;;;0.80;;
77738;SDS011;66904;59.926;30.404;2024-03-02T10:39:21;2.70;;;1.15;;
77738;SDS011;66904;59.926;30.404;2024-03-02T10:44:32;6.20;;;1.13;;
77738;SDS011;66904;59.926;30.404;2024-03-02T10:49:43;2.88;;;1.13;;
77738;SDS011;66904;59.926;30.404;2024-03-02T10:54:57;4.95;;;0.98;;
77738;SDS011;66904;59.926;30.404;2024-03-02T11:00:08;2.15;;;1.02;;
77738;SDS011;66904;59.926;30.404;2024-03-02T11:05:29;2.35;;;1.17;;
77738;SDS011;66904;59.926;30.404;2024-03-02T11:10:47;2.45;;;1.08;;
77738;SDS011;66904;59.926;30.404;2024-03-02T11:16:05;3.97;;;1.17;;
77738;SDS011;66904;59.926;30.404;2024-03-02T11:26:38;4.32;;;1.40;;
77738;SDS011;66904;59.926;30.404;2024-03-02T11:31:59;2.10;;;0.93;;
77738;SDS011;66904;59.926;30.404;2024-03-02T11:37:13;2.70;;;0.88;;
77738;SDS011;66904;59.926;30.404;2024-03-02T11:42:25;3.22;;;1.05;;
77738;SDS011;66904;59.926;30.404;2024-03-02T11:47:36;3.00;;;0.88;;
77738;SDS011;66904;59.926;30.404;2024-03-02T11:52:47;1.90;;;0.75;;
77738;SDS011;66904;59.926;30.404;2024-03-02T11:57:58;4.25;;;1.63;;
77738;SDS011;66904;59.926;30.404;2024-03-02T12:03:12;2.35;;;0.68;;
77738;SDS011;66904;59.926;30.404;2024-03-02T12:08:25;7.43;;;1.45;;
77738;SDS011;66904;59.926;30.404;2024-03-02T12:13:37;1.50;;;0.70;;
77738;SDS011;66904;59.926;30.404;2024-03-02T12:18:47;1.58;;;0.82;;
77738;SDS011;66904;59.926;30.404;2024-03-02T12:23:58;2.10;;;0.93;;
77738;SDS011;66904;59.926;30.404;2024-03-02T12:29:09;2.90;;;1.05;;
77738;SDS011;66904;59.926;30.404;2024-03-02T12:34:21;2.88;;;1.05;;
77738;SDS011;66904;59.926;30.404;2024-03-02T12:39:32;5.57;;;1.10;;
77738;SDS011;66904;59.926;30.404;2024-03-02T12:44:43;7.50;;;0.57;;
77738;SDS011;66904;59.926;30.404;2024-03-02T12:49:54;1.58;;;0.68;;
77738;SDS011;66904;59.926;30.404;2024-03-02T12:55:06;2.47;;;1.23;;
77738;SDS011;66904;59.926;30.404;2024-03-02T13:00:18;3.28;;;1.20;;
77738;SDS011;66904;59.926;30.404;2024-03-02T13:05:30;7.05;;;1.10;;
77738;SDS011;66904;59.926;30.404;2024-03-02T13:10:42;5.38;;;1.30;;
77738;SDS011;66904;59.926;30.404;2024-03-02T13:15:55;3.25;;;1.27;;
77738;SDS011;66904;59.926;30.404;2024-03-02T13:21:07;3.67;;;0.95;;
77738;SDS011;66904;59.926;30.404;2024-03-02T13:26:18;2.63;;;1.63;;
77738;SDS011;66904;59.926;30.404;2024-03-02T13:31:29;6.00;;;1.23;;
77738;SDS011;66904;59.926;30.404;2024-03-02T13:36:39;2.72;;;1.05;;
77738;SDS011;66904;59.926;30.404;2024-03-02T13:41:50;1.58;;;0.88;;
77738;SDS011;66904;59.926;30.404;2024-03-02T13:47:12;5.57;;;1.15;;
77738;SDS011;66904;59.926;30.404;2024-03-02T13:52:23;4.80;;;1.00;;
77738;SDS011;66904;59.926;30.404;2024-03-02T13:57:36;2.50;;;1.20;;
77738;SDS011;66904;59.926;30.404;2024-03-02T14:02:46;1.98;;;0.70;;
77738;SDS011;66904;59.926;30.404;2024-03-02T14:07:59;2.25;;;0.82;;
77738;SDS011;66904;59.926;30.404;2024-03-02T14:13:14;1.77;;;0.57;;
77738;SDS011;66904;59.926;30.404;2024-03-02T14:18:27;3.97;;;1.20;;
77738;SDS011;66904;59.926;30.404;2024-03-02T14:23:38;2.83;;;1.08;;
77738;SDS011;66904;59.926;30.404;2024-03-02T14:28:48;1.10;;;0.63;;
77738;SDS011;66904;59.926;30.404;2024-03-02T14:33:59;6.78;;;1.17;;
77738;SDS011;66904;59.926;30.404;2024-03-02T14:39:10;1.95;;;0.80;;
77738;SDS011;66904;59.926;30.404;2024-03-02T14:44:21;2.95;;;0.60;;
77738;SDS011;66904;59.926;30.404;2024-03-02T14:49:32;2.20;;;0.95;;
77738;SDS011;66904;59.926;30.404;2024-03-02T14:54:46;1.65;;;0.77;;
77738;SDS011;66904;59.926;30.404;2024-03-02T14:59:57;1.90;;;0.82;;
77738;SDS011;66904;59.926;30.404;2024-03-02T15:05:07;2.08;;;0.77;;
77738;SDS011;66904;59.926;30.404;2024-03-02T15:10:18;3.58;;;1.05;;
77738;SDS011;66904;59.926;30.404;2024-03-02T15:15:29;3.00;;;1.10;;
77738;SDS011;66904;59.926;30.404;2024-03-02T15:20:40;3.47;;;1.05;;
77738;SDS011;66904;59.926;30.404;2024-03-02T15:25:51;7.78;;;1.08;;
77738;SDS011;66904;59.926;30.404;2024-03-02T15:31:02;2.15;;;1.23;;
77738;SDS011;66904;59.926;30.404;2024-03-02T15:36:13;3.42;;;1.42;;
77738;SDS011;66904;59.926;30.404;2024-03-02T15:41:24;2.45;;;1.13;;
77738;SDS011;66904;59.926;30.404;2024-03-02T15:46:35;2.58;;;1.38;;
77738;SDS011;66904;59.926;30.404;2024-03-02T15:51:46;2.67;;;1.35;;
77738;SDS011;66904;59.926;30.404;2024-03-02T15:56:57;4.10;;;1.52;;
77738;SDS011;66904;59.926;30.404;2024-03-02T16:02:08;2.67;;;1.27;;
77738;SDS011;66904;59.926;30.404;2024-03-02T16:07:19;2.88;;;1.35;;
77738;SDS011;66904;59.926;30.404;2024-03-02T16:12:29;2.28;;;1.05;;
77738;SDS011;66904;59.926;30.404;2024-03-02T16:17:40;4.15;;;1.20;;
77738;SDS011;66904;59.926;30.404;2024-03-02T16:22:51;2.95;;;1.35;;
77738;SDS011;66904;59.926;30.404;2024-03-02T16:28:02;5.65;;;1.85;;
77738;SDS011;66904;59.926;30.404;2024-03-02T16:33:13;3.60;;;1.55;;
77738;SDS011;66904;59.926;30.404;2024-03-02T16:38:24;11.15;;;1.95;;
77738;SDS011;66904;59.926;30.404;2024-03-02T16:43:35;1.75;;;0.98;;
77738;SDS011;66904;59.926;30.404;2024-03-02T16:48:46;2.10;;;1.02;;
77738;SDS011;66904;59.926;30.404;2024-03-02T16:53:57;5.72;;;1.60;;
77738;SDS011;66904;59.926;30.404;2024-03-02T16:59:08;2.30;;;1.10;;
77738;SDS011;66904;59.926;30.404;2024-03-02T17:04:19;3.30;;;1.42;;
77738;SDS011;66904;59.926;30.404;2024-03-02T17:09:29;2.70;;;1.55;;
77738;SDS011;66904;59.926;30.404;2024-03-02T17:14:40;2.33;;;1.27;;
77738;SDS011;66904;59.926;30.404;2024-03-02T17:19:51;3.15;;;1.65;;
77738;SDS011;66904;59.926;30.404;2024-03-02T17:25:02;2.88;;;1.42;;
77738;SDS011;66904;59.926;30.404;2024-03-02T17:30:14;4.35;;;1.58;;
77738;SDS011;66904;59.926;30.404;2024-03-02T17:35:25;5.93;;;1.25;;
77738;SDS011;66904;59.926;30.404;2024-03-02T17:40:35;2.47;;;1.30;;
77738;SDS011;66904;59.926;30.404;2024-03-02T17:45:46;2.40;;;1.05;;
77738;SDS011;66904;59.926;30.404;2024-03-02T17:50:57;2.53;;;1.27;;
77738;SDS011;66904;59.926;30.404;2024-03-02T17:56:11;3.47;;;1.70;;
77738;SDS011;66904;59.926;30.404;2024-03-02T18:01:22;4.25;;;1.67;;
77738;SDS011;66904;59.926;30.404;2024-03-02T18:06:33;2.65;;;1.13;;
77738;SDS011;66904;59.926;30.404;2024-03-02T18:11:44;2.88;;;1.30;;
77738;SDS011;66904;59.926;30.404;2024-03-02T18:16:55;1.98;;;1.05;;
77738;SDS011;66904;59.926;30.404;2024-03-02T18:22:06;3.20;;;1.25;;
77738;SDS011;66904;59.926;30.404;2024-03-02T18:27:16;3.38;;;1.25;;
77738;SDS011;66904;59.926;30.404;2024-03-02T18:32:28;3.22;;;1.45;;
77738;SDS011;66904;59.926;30.404;2024-03-02T18:37:39;3.67;;;1.33;;
77738;SDS011;66904;59.926;30.404;2024-03-02T18:42:49;2.95;;;1.38;;
77738;SDS011;66904;59.926;30.404;2024-03-02T18:48:00;2.90;;;1.23;;
77738;SDS011;66904;59.926;30.404;2024-03-02T18:53:12;2.15;;;0.93;;
77738;SDS011;66904;59.926;30.404;2024-03-02T18:58:23;2.75;;;1.50;;
77738;SDS011;66904;59.926;30.404;2024-03-02T19:03:35;2.90;;;1.38;;
77738;SDS011;66904;59.926;30.404;2024-03-02T19:08:46;3.33;;;1.00;;
77738;SDS011;66904;59.926;30.404;2024-03-02T19:13:57;3.38;;;1.25;;
77738;SDS011;66904;59.926;30.404;2024-03-02T19:19:07;2.08;;;1.00;;
77738;SDS011;66904;59.926;30.404;2024-03-02T19:24:18;1.98;;;1.08;;
77738;SDS011;66904;59.926;30.404;2024-03-02T19:29:31;2.47;;;1.13;;
77738;SDS011;66904;59.926;30.404;2024-03-02T19:34:42;3.50;;;1.45;;
77738;SDS011;66904;59.926;30.404;2024-03-02T19:39:52;7.00;;;1.20;;
77738;SDS011;66904;59.926;30.404;2024-03-02T19:45:03;2.47;;;1.25;;
77738;SDS011;66904;59.926;30.404;2024-03-02T19:50:17;3.90;;;1.38;;
77738;SDS011;66904;59.926;30.404;2024-03-02T19:55:28;2.25;;;1.20;;
77738;SDS011;66904;59.926;30.404;2024-03-02T20:00:40;3.10;;;1.45;;
77738;SDS011;66904;59.926;30.404;2024-03-02T20:05:51;4.85;;;1.67;;
77738;SDS011;66904;59.926;30.404;2024-03-02T20:11:03;3.35;;;1.45;;
77738;SDS011;66904;59.926;30.404;2024-03-02T20:16:14;2.35;;;1.30;;
77738;SDS011;66904;59.926;30.404;2024-03-02T20:21:27;3.05;;;1.58;;
77738;SDS011;66904;59.926;30.404;2024-03-02T20:26:38;2.55;;;1.20;;
77738;SDS011;66904;59.926;30.404;2024-03-02T20:31:49;2.50;;;1.60;;
77738;SDS011;66904;59.926;30.404;2024-03-02T20:37:00;3.83;;;1.73;;
77738;SDS011;66904;59.926;30.404;2024-03-02T20:42:11;3.17;;;1.35;;
77738;SDS011;66904;59.926;30.404;2024-03-02T20:47:22;3.45;;;1.35;;
77738;SDS011;66904;59.926;30.404;2024-03-02T20:52:32;2.95;;;1.27;;
77738;SDS011;66904;59.926;30.404;2024-03-02T20:57:43;2.03;;;1.20;;
77738;SDS011;66904;59.926;30.404;2024-03-02T21:02:54;3.42;;;1.30;;
77738;SDS011;66904;59.926;30.404;2024-03-02T21:08:04;4.72;;;1.40;;
77738;SDS011;66904;59.926;30.404;2024-03-02T21:13:15;1.63;;;1.02;;
77738;SDS011;66904;59.926;30.404;2024-03-02T21:18:27;3.33;;;1.48;;
77738;SDS011;66904;59.926;30.404;2024-03-02T21:23:37;2.75;;;1.33;;
77738;SDS011;66904;59.926;30.404;2024-03-02T21:28:48;3.05;;;1.80;;
77738;SDS011;66904;59.926;30.404;2024-03-02T21:33:59;2.22;;;1.27;;
77738;SDS011;66904;59.926;30.404;2024-03-02T21:39:09;3.00;;;1.73;;
77738;SDS011;66904;59.926;30.404;2024-03-02T21:44:20;3.60;;;2.00;;
77738;SDS011;66904;59.926;30.404;2024-03-02T21:49:31;3.88;;;2.17;;
77738;SDS011;66904;59.926;30.404;2024-03-02T21:54:41;3.05;;;1.83;;
77738;SDS011;66904;59.926;30.404;2024-03-02T21:59:52;3.35;;;1.70;;
77738;SDS011;66904;59.926;30.404;2024-03-02T22:05:03;3.05;;;1.40;;
77738;SDS011;66904;59.926;30.404;2024-03-02T22:10:15;4.57;;;2.03;;
77738;SDS011;66904;59.926;30.404;2024-03-02T22:15:26;2.92;;;1.67;;
77738;SDS011;66904;59.926;30.404;2024-03-02T22:20:37;3.55;;;1.60;;
77738;SDS011;66904;59.926;30.404;2024-03-02T22:25:48;2.75;;;1.25;;
77738;SDS011;66904;59.926;30.404;2024-03-02T22:30:58;2.97;;;1.55;;
77738;SDS011;66904;59.926;30.404;2024-03-02T22:36:09;2.83;;;1.20;;
77738;SDS011;66904;59.926;30.404;2024-03-02T22:41:21;2.38;;;1.17;;
77738;SDS011;66904;59.926;30.404;2024-03-02T22:46:32;2.83;;;1.40;;
77738;SDS011;66904;59.926;30.404;2024-03-02T22:51:42;2.53;;;1.08;;
77738;SDS011;66904;59.926;30.404;2024-03-02T22:56:53;2.35;;;1.15;;
77738;SDS011;66904;59.926;30.404;2024-03-02T23:02:07;2.35;;;1.40;;
77738;SDS011;66904;59.926;30.404;2024-03-02T23:07:17;3.17;;;1.40;;
77738;SDS011;66904;59.926;30.404;2024-03-02T23:12:32;2.67;;;1.17;;
77738;SDS011;66904;59.926;30.404;2024-03-02T23:17:43;3.45;;;1.35;;
77738;SDS011;66904;59.926;30.404;2024-03-02T23:22:54;2.42;;;1.23;;
77738;SDS011;66904;59.926;30.404;2024-03-02T23:28:05;3.65;;;1.58;;
77738;SDS011;66904;59.926;30.404;2024-03-02T23:33:15;2.60;;;1.23;;
77738;SDS011;66904;59.926;30.404;2024-03-02T23:38:26;2.80;;;1.33;;
77738;SDS011;66904;59.926;30.404;2024-03-02T23:43:37;2.95;;;1.30;;
77738;SDS011;66904;59.926;30.404;2024-03-02T23:48:48;3.20;;;1.35;;
77738;SDS011;66904;59.926;30.404;2024-03-02T23:53:59;2.67;;;1.40;;
77738;SDS011;66904;59.926;30.404;2024-03-02T23:59:09;3.50;;;1.38;;
